createdAt,value
2018-06-05T00:00:53.310Z,18.10
2018-06-05T00:03:20.753Z,18.00
2018-06-05T00:05:48.201Z,17.90
2018-06-05T00:08:15.641Z,17.80
2018-06-05T00:10:43.858Z,17.80
2018-06-05T00:13:11.301Z,17.80
2018-06-05T00:15:38.801Z,17.80
2018-06-05T00:18:06.262Z,17.90
2018-06-05T00:20:33.721Z,17.90
2018-06-05T00:23:01.190Z,18.00
2018-06-05T00:25:28.649Z,18.00
2018-06-05T00:27:56.093Z,18.00
2018-06-05T00:30:23.542Z,18.00
2018-06-05T00:32:50.991Z,17.90
2018-06-05T00:35:18.444Z,17.90
2018-06-05T00:37:46.662Z,17.80
2018-06-05T00:40:14.103Z,17.80
2018-06-05T00:42:41.598Z,17.90
2018-06-05T00:45:09.033Z,17.90
2018-06-05T00:47:36.518Z,17.90
2018-06-05T00:50:03.957Z,17.80
2018-06-05T00:52:31.405Z,17.80
2018-06-05T00:54:58.861Z,17.90
2018-06-05T00:57:26.313Z,17.80
2018-06-05T00:59:54.542Z,17.90
2018-06-05T01:02:22.007Z,17.90
2018-06-05T01:04:49.469Z,18.00
2018-06-05T01:07:16.921Z,18.00
2018-06-05T01:09:44.357Z,18.00
2018-06-05T01:12:37.574Z,18.00
2018-06-05T01:15:05.770Z,18.00
2018-06-05T01:17:33.922Z,18.00
2018-06-05T01:20:02.078Z,18.00
2018-06-05T01:22:30.230Z,18.00
2018-06-05T01:24:58.365Z,17.90
2018-06-05T01:27:26.517Z,17.90
2018-06-05T01:29:54.653Z,17.90
2018-06-05T01:32:22.802Z,17.90
2018-06-05T01:34:50.954Z,18.00
2018-06-05T01:37:19.108Z,18.00
2018-06-05T01:39:47.258Z,18.00
2018-06-05T01:42:15.438Z,18.00
2018-06-05T01:44:43.610Z,18.10
2018-06-05T01:47:11.730Z,18.10
2018-06-05T01:49:40.895Z,18.20
2018-06-05T01:52:09.499Z,18.20
2018-06-05T01:54:37.769Z,18.20
2018-06-05T01:57:05.939Z,18.20
2018-06-05T01:59:34.082Z,18.30
2018-06-05T02:02:02.218Z,18.20
2018-06-05T02:04:30.374Z,18.20
2018-06-05T02:06:58.561Z,18.20
2018-06-05T02:09:26.715Z,18.20
2018-06-05T02:11:54.861Z,18.20
2018-06-05T02:14:23.001Z,18.20
2018-06-05T02:16:51.150Z,18.30
2018-06-05T02:19:19.301Z,18.30
2018-06-05T02:21:47.457Z,18.30
2018-06-05T02:24:15.794Z,18.20
2018-06-05T02:26:43.933Z,18.20
2018-06-05T02:29:12.082Z,18.20
2018-06-05T02:31:40.222Z,18.30
2018-06-05T02:34:08.414Z,18.30
2018-06-05T02:36:36.553Z,18.30
2018-06-05T02:39:06.726Z,18.30
2018-06-05T02:41:34.874Z,18.30
2018-06-05T02:44:03.041Z,18.30
2018-06-05T02:46:31.213Z,18.30
2018-06-05T02:48:59.377Z,18.30
2018-06-05T02:51:27.517Z,18.20
2018-06-05T02:53:55.666Z,18.30
2018-06-05T02:56:23.834Z,18.20
2018-06-05T02:58:52.027Z,18.20
2018-06-05T03:01:20.166Z,18.20
2018-06-05T03:03:48.318Z,18.20
2018-06-05T03:06:16.466Z,18.20
2018-06-05T03:08:44.613Z,18.20
2018-06-05T03:11:13.530Z,18.00
2018-06-05T03:13:41.698Z,17.80
2018-06-05T03:16:09.957Z,17.90
2018-06-05T03:18:38.126Z,18.00
2018-06-05T03:21:06.272Z,18.20
2018-06-05T03:23:34.421Z,18.10
2018-06-05T03:26:02.565Z,18.10
2018-06-05T03:28:30.729Z,17.90
2018-06-05T03:30:58.902Z,18.00
2018-06-05T03:33:27.043Z,18.10
2018-06-05T03:35:55.186Z,18.00
2018-06-05T03:38:23.389Z,18.10
2018-06-05T03:40:51.576Z,18.00
2018-06-05T03:43:19.702Z,18.00
2018-06-05T03:45:47.874Z,18.00
2018-06-05T03:48:16.054Z,18.00
2018-06-05T03:50:44.214Z,18.00
2018-06-05T03:53:12.358Z,18.10
2018-06-05T03:55:40.513Z,18.10
2018-06-05T03:58:08.681Z,18.10
2018-06-05T04:00:36.830Z,18.10
2018-06-05T04:03:04.999Z,18.00
2018-06-05T04:05:33.142Z,18.00
2018-06-05T04:08:01.334Z,18.10
2018-06-05T04:10:29.481Z,18.00
2018-06-05T04:12:57.631Z,18.00
2018-06-05T04:15:25.785Z,18.00
2018-06-05T04:17:53.953Z,18.00
2018-06-05T04:20:22.101Z,18.00
2018-06-05T04:22:50.259Z,17.90
2018-06-05T04:25:18.410Z,17.90
2018-06-05T04:27:46.570Z,17.90
2018-06-05T04:30:14.777Z,17.90
2018-06-05T04:35:10.902Z,17.90
2018-06-05T04:37:39.085Z,17.80
2018-06-05T04:40:07.246Z,17.80
2018-06-05T04:42:35.492Z,17.80
2018-06-05T04:45:03.638Z,17.70
2018-06-05T04:47:31.787Z,17.60
2018-06-05T04:49:59.941Z,17.60
2018-06-05T04:52:28.161Z,17.70
2018-06-05T04:54:56.301Z,17.70
2018-06-05T04:57:24.450Z,17.70
2018-06-05T04:59:52.632Z,17.70
2018-06-05T05:02:20.774Z,17.80
2018-06-05T05:07:16.839Z,17.80
2018-06-05T05:09:45.044Z,17.80
2018-06-05T05:12:13.202Z,17.80
2018-06-05T05:14:41.393Z,17.80
2018-06-05T05:17:09.557Z,17.90
2018-06-05T05:19:37.733Z,17.80
2018-06-05T05:22:05.878Z,17.70
2018-06-05T05:24:34.031Z,17.80
2018-06-05T05:27:02.220Z,17.90
2018-06-05T05:29:30.409Z,17.80
2018-06-05T05:31:58.554Z,17.80
2018-06-05T05:34:26.691Z,17.80
2018-06-05T05:36:54.857Z,17.80
2018-06-05T05:39:23.028Z,17.80
2018-06-05T05:41:51.170Z,17.70
2018-06-05T05:44:19.321Z,17.70
2018-06-05T05:46:47.477Z,17.80
2018-06-05T05:49:15.680Z,17.80
2018-06-05T05:51:43.868Z,17.70
2018-06-05T05:54:12.022Z,17.60
2018-06-05T05:56:40.179Z,17.70
2018-06-05T05:59:08.321Z,17.70
2018-06-05T06:01:36.474Z,17.80
2018-06-05T06:04:04.977Z,17.80
2018-06-05T06:06:33.129Z,17.80
2018-06-05T06:09:01.277Z,17.90
2018-06-05T06:11:29.482Z,17.80
2018-06-05T06:13:57.627Z,17.60
2018-06-05T06:16:25.778Z,17.60
2018-06-05T06:18:53.973Z,17.70
2018-06-05T06:21:22.144Z,17.90
2018-06-05T06:23:50.261Z,17.90
2018-06-05T06:26:18.538Z,17.80
2018-06-05T06:28:46.704Z,17.80
2018-06-05T06:33:42.850Z,17.60
2018-06-05T06:36:10.998Z,17.70
2018-06-05T06:38:39.263Z,17.80
2018-06-05T06:41:07.446Z,17.90
2018-06-05T06:43:35.660Z,17.90
2018-06-05T06:46:03.998Z,17.80
2018-06-05T06:48:32.210Z,17.90
2018-06-05T06:51:00.442Z,17.90
2018-06-05T06:53:28.583Z,18.00
2018-06-05T06:55:56.737Z,17.90
2018-06-05T06:58:24.902Z,17.80
2018-06-05T07:00:53.097Z,17.90
2018-06-05T07:03:21.297Z,17.90
2018-06-05T07:05:49.450Z,17.60
2018-06-05T07:08:17.590Z,17.50
2018-06-05T07:10:45.754Z,17.60
2018-06-05T07:13:13.946Z,17.60
2018-06-05T07:15:42.115Z,17.60
2018-06-05T07:18:10.257Z,17.70
2018-06-05T07:20:38.458Z,17.90
2018-06-05T07:23:06.701Z,17.90
2018-06-05T07:25:34.881Z,18.00
2018-06-05T07:28:03.067Z,18.00
2018-06-05T07:32:59.286Z,18.00
2018-06-05T07:35:27.425Z,17.90
2018-06-05T07:37:55.640Z,18.10
2018-06-05T07:40:24.361Z,18.10
2018-06-05T07:42:52.517Z,18.00
2018-06-05T07:45:20.663Z,17.90
2018-06-05T07:47:48.819Z,17.90
2018-06-05T07:50:16.958Z,18.00
2018-06-05T07:52:45.111Z,18.00
2018-06-05T07:55:13.326Z,18.00
2018-06-05T07:57:41.441Z,17.90
2018-06-05T08:00:09.682Z,17.90
2018-06-05T08:02:37.847Z,17.90
2018-06-05T08:05:05.991Z,17.70
2018-06-05T08:07:34.138Z,17.80
2018-06-05T08:10:02.330Z,17.80
2018-06-05T08:12:30.494Z,17.90
2018-06-05T08:14:58.629Z,18.00
2018-06-05T08:17:26.790Z,18.10
2018-06-05T08:19:55.069Z,18.20
2018-06-05T08:22:23.754Z,18.00
2018-06-05T08:24:51.906Z,17.90
2018-06-05T08:27:20.091Z,17.90
2018-06-05T08:29:48.238Z,18.00
2018-06-05T08:32:17.418Z,18.00
2018-06-05T08:34:45.566Z,18.10
2018-06-05T08:37:13.735Z,18.20
2018-06-05T08:39:41.889Z,18.20
2018-06-05T08:42:10.069Z,18.20
2018-06-05T08:44:38.247Z,18.20
2018-06-05T08:47:06.389Z,18.30
2018-06-05T08:52:02.458Z,18.30
2018-06-05T08:54:30.609Z,18.30
2018-06-05T08:56:58.766Z,18.30
2018-06-05T08:59:26.966Z,18.30
2018-06-05T09:01:55.179Z,18.30
2018-06-05T09:04:23.451Z,18.40
2018-06-05T09:06:51.609Z,18.40
2018-06-05T09:11:47.763Z,18.50
2018-06-05T09:16:43.885Z,18.50
2018-06-05T09:19:12.025Z,18.50
2018-06-05T09:21:40.185Z,18.50
2018-06-05T09:24:08.342Z,18.60
2018-06-05T09:26:36.477Z,18.60
2018-06-05T09:29:04.691Z,18.60
2018-06-05T09:31:32.866Z,18.60
2018-06-05T09:34:01.022Z,18.50
2018-06-05T09:36:29.186Z,18.50
2018-06-05T09:38:57.381Z,18.60
2018-06-05T09:41:25.527Z,18.60
2018-06-05T09:43:53.665Z,18.60
2018-06-05T09:48:49.758Z,18.60
2018-06-05T09:51:17.990Z,18.60
2018-06-05T09:53:46.149Z,18.50
2018-06-05T09:56:14.301Z,18.40
2018-06-05T09:58:42.521Z,18.40
2018-06-05T10:01:10.723Z,18.40
2018-06-05T10:03:38.871Z,18.50
2018-06-05T10:06:07.034Z,18.60
2018-06-05T10:08:35.186Z,18.70
2018-06-05T10:11:03.426Z,18.70
2018-06-05T10:13:31.581Z,18.60
2018-06-05T10:15:59.731Z,18.50
2018-06-05T10:18:27.880Z,18.50
2018-06-05T10:20:56.085Z,18.60
2018-06-05T10:23:24.333Z,18.70
2018-06-05T10:25:52.490Z,18.80
2018-06-05T10:28:20.750Z,18.80
2018-06-05T10:30:49.046Z,18.90
2018-06-05T10:35:45.119Z,19.00
2018-06-05T10:38:13.265Z,19.00
2018-06-05T10:40:41.525Z,18.90
2018-06-05T10:43:09.697Z,18.90
2018-06-05T10:45:37.834Z,18.90
2018-06-05T10:48:06.002Z,18.80
2018-06-05T10:50:38.541Z,18.90
2018-06-05T10:53:07.433Z,19.10
2018-06-05T10:55:36.201Z,19.20
2018-06-05T10:58:04.418Z,19.30
2018-06-05T11:00:32.563Z,19.30
2018-06-05T11:03:00.709Z,19.30
2018-06-05T11:05:28.849Z,19.40
2018-06-05T11:07:57.069Z,19.50
2018-06-05T11:10:25.222Z,19.50
2018-06-05T11:12:53.390Z,19.40
2018-06-05T11:15:21.609Z,19.40
2018-06-05T11:17:49.770Z,19.50
2018-06-05T11:20:17.942Z,19.60
2018-06-05T11:22:46.065Z,19.70
2018-06-05T11:25:14.258Z,19.60
2018-06-05T11:27:42.421Z,19.60
2018-06-05T11:30:10.609Z,19.70
2018-06-05T11:32:38.718Z,19.70
2018-06-05T11:35:06.887Z,19.80
2018-06-05T11:37:35.118Z,19.80
2018-06-05T11:40:03.489Z,19.80
2018-06-05T11:42:31.637Z,19.90
2018-06-05T11:44:59.802Z,19.90
2018-06-05T11:47:27.998Z,19.90
2018-06-05T11:49:56.150Z,20.00
2018-06-05T11:52:24.293Z,20.10
2018-06-05T11:54:52.514Z,20.10
2018-06-05T11:57:20.681Z,20.20
2018-06-05T11:59:48.845Z,20.20
2018-06-05T12:02:16.990Z,20.20
2018-06-05T12:04:45.222Z,20.20
2018-06-05T12:07:13.374Z,20.20
2018-06-05T12:09:41.574Z,20.30
2018-06-05T12:12:09.758Z,20.40
2018-06-05T12:14:37.919Z,20.50
2018-06-05T12:17:06.065Z,20.60
2018-06-05T12:19:34.222Z,20.60
2018-06-05T12:22:02.457Z,20.70
2018-06-05T12:24:30.897Z,20.70
2018-06-05T12:26:59.048Z,20.80
2018-06-05T12:29:27.278Z,20.80
2018-06-05T12:31:55.421Z,20.90
2018-06-05T12:34:23.598Z,21.00
2018-06-05T12:36:51.784Z,20.90
2018-06-05T12:39:20.060Z,21.00
2018-06-05T12:41:48.230Z,20.90
2018-06-05T12:44:16.354Z,21.00
2018-06-05T12:46:44.525Z,21.30
2018-06-05T12:49:12.760Z,21.50
2018-06-05T12:51:40.905Z,21.70
2018-06-05T12:54:09.059Z,21.80
2018-06-05T12:56:37.245Z,21.70
2018-06-05T12:59:05.414Z,21.70
2018-06-05T13:01:33.586Z,21.80
2018-06-05T13:04:01.742Z,21.80
2018-06-05T13:06:29.899Z,21.70
2018-06-05T13:08:58.065Z,21.70
2018-06-05T13:11:26.217Z,21.70
2018-06-05T13:13:54.366Z,21.70
2018-06-05T13:16:22.538Z,21.80
2018-06-05T13:18:50.721Z,21.90
2018-06-05T13:21:18.894Z,22.00
2018-06-05T13:23:47.158Z,22.00
2018-06-05T13:26:15.314Z,22.20
2018-06-05T13:28:43.450Z,22.40
2018-06-05T13:31:11.598Z,22.40
2018-06-05T13:33:39.766Z,22.30
2018-06-05T13:36:08.038Z,22.40
2018-06-05T13:38:36.237Z,22.40
2018-06-05T13:41:04.398Z,22.40
2018-06-05T13:43:32.544Z,22.60
2018-06-05T13:46:00.715Z,23.00
2018-06-05T13:48:28.922Z,23.20
2018-06-05T13:50:57.070Z,23.30
2018-06-05T13:53:25.285Z,23.30
2018-06-05T13:55:53.458Z,23.20
2018-06-05T13:58:21.618Z,23.10
2018-06-05T14:00:49.769Z,23.20
2018-06-05T14:03:17.914Z,23.50
2018-06-05T14:05:46.113Z,23.80
2018-06-05T14:08:14.262Z,24.00
2018-06-05T14:10:42.421Z,23.90
2018-06-05T14:13:10.557Z,24.00
2018-06-05T14:15:38.716Z,24.20
2018-06-05T14:18:06.913Z,24.30
2018-06-05T14:20:35.063Z,24.40
2018-06-05T14:23:03.241Z,24.70
2018-06-05T14:25:31.386Z,24.70
2018-06-05T14:27:59.572Z,24.90
2018-06-05T14:30:27.751Z,25.00
2018-06-05T14:32:55.905Z,25.10
2018-06-05T14:35:24.043Z,25.20
2018-06-05T14:37:52.210Z,25.10
2018-06-05T14:40:20.370Z,25.00
2018-06-05T14:42:48.605Z,24.60
2018-06-05T14:45:16.858Z,24.70
2018-06-05T14:47:44.893Z,24.90
2018-06-05T14:50:13.144Z,24.80
2018-06-05T14:52:41.277Z,24.70
2018-06-05T14:55:09.495Z,25.10
2018-06-05T14:57:37.655Z,25.40
2018-06-05T15:00:05.798Z,25.10
2018-06-05T15:02:34.017Z,24.70
2018-06-05T15:05:02.162Z,24.20
2018-06-05T15:07:30.317Z,24.00
2018-06-05T15:09:58.474Z,24.00
2018-06-05T15:12:26.666Z,24.00
2018-06-05T15:14:54.898Z,24.10
2018-06-05T15:17:23.040Z,24.30
2018-06-05T15:19:51.345Z,24.40
2018-06-05T15:22:19.493Z,24.40
2018-06-05T15:24:47.645Z,24.60
2018-06-05T15:27:15.806Z,24.50
2018-06-05T15:29:43.945Z,24.20
2018-06-05T15:32:12.085Z,24.20
2018-06-05T15:34:40.233Z,24.20
2018-06-05T15:37:08.394Z,24.00
2018-06-05T15:39:36.562Z,24.00
2018-06-05T15:42:04.893Z,23.90
2018-06-05T15:44:33.042Z,23.90
2018-06-05T15:49:29.090Z,23.60
2018-06-05T15:51:57.225Z,23.60
2018-06-05T15:54:25.378Z,23.50
2018-06-05T15:56:53.514Z,23.50
2018-06-05T15:59:21.696Z,23.40
2018-06-05T16:01:49.834Z,23.40
2018-06-05T16:04:17.982Z,23.40
2018-06-05T16:06:46.182Z,23.30
2018-06-05T16:09:14.433Z,23.30
2018-06-05T16:11:42.574Z,23.30
2018-06-05T16:14:10.746Z,23.20
2018-06-05T16:16:38.913Z,23.00
2018-06-05T16:19:07.083Z,23.00
2018-06-05T16:21:35.278Z,23.00
2018-06-05T16:24:03.426Z,22.90
2018-06-05T16:26:31.570Z,22.90
2018-06-05T16:28:59.713Z,22.80
2018-06-05T16:31:27.865Z,22.80
2018-06-05T16:33:56.046Z,22.60
2018-06-05T16:36:24.321Z,22.60
2018-06-05T16:38:52.426Z,22.50
2018-06-05T16:41:20.574Z,22.60
2018-06-05T16:43:48.750Z,22.50
2018-06-05T16:46:16.889Z,22.40
2018-06-05T16:48:45.038Z,22.30
2018-06-05T16:51:13.185Z,22.30
2018-06-05T16:53:41.326Z,22.20
2018-06-05T16:56:09.473Z,22.20
2018-06-05T16:58:37.614Z,22.00
2018-06-05T17:01:05.761Z,21.90
2018-06-05T17:03:33.907Z,21.90
2018-06-05T17:06:02.127Z,21.80
2018-06-05T17:08:30.258Z,21.80
2018-06-05T17:10:58.401Z,21.80
2018-06-05T17:13:26.661Z,21.90
2018-06-05T17:15:54.785Z,21.80
2018-06-05T17:18:22.938Z,21.90
2018-06-05T17:20:51.094Z,21.50
2018-06-05T17:23:19.237Z,21.50
2018-06-05T17:25:47.471Z,21.60
2018-06-05T17:28:15.682Z,21.50
2018-06-05T17:30:43.817Z,21.40
2018-06-05T17:33:11.998Z,21.40
2018-06-05T17:35:40.162Z,21.40
2018-06-05T17:38:08.346Z,21.50
2018-06-05T17:40:36.588Z,21.40
2018-06-05T17:43:04.677Z,21.50
2018-06-05T17:45:32.851Z,21.40
2018-06-05T17:48:00.973Z,21.20
2018-06-05T17:50:29.114Z,21.10
2018-06-05T17:52:57.272Z,21.20
2018-06-05T17:55:25.414Z,21.20
2018-06-05T17:57:53.599Z,21.10
2018-06-05T18:00:21.761Z,21.20
2018-06-05T18:02:49.906Z,21.10
2018-06-05T18:05:18.061Z,21.20
2018-06-05T18:07:46.254Z,21.20
2018-06-05T18:12:42.345Z,21.10
2018-06-05T18:15:10.502Z,21.10
2018-06-05T18:17:38.649Z,21.10
2018-06-05T18:20:06.798Z,21.00
2018-06-05T18:22:34.966Z,21.00
2018-06-05T18:25:03.112Z,20.90
2018-06-05T18:27:31.330Z,20.90
2018-06-05T18:29:59.490Z,20.80
2018-06-05T18:32:27.646Z,20.80
2018-06-05T18:34:55.798Z,20.70
2018-06-05T18:37:23.978Z,20.70
2018-06-05T18:39:52.129Z,20.70
2018-06-05T18:42:20.278Z,20.60
2018-06-05T18:44:48.453Z,20.50
2018-06-05T18:47:16.634Z,20.50
2018-06-05T18:49:44.878Z,20.50
2018-06-05T18:52:13.007Z,20.50
2018-06-05T18:54:41.166Z,20.40
2018-06-05T18:57:09.330Z,20.50
2018-06-05T18:59:37.475Z,20.40
2018-06-05T19:02:05.798Z,20.40
2018-06-05T19:04:33.975Z,20.30
2018-06-05T19:07:02.135Z,20.20
2018-06-05T19:09:30.344Z,20.20
2018-06-05T19:11:58.481Z,20.20
2018-06-05T19:14:26.646Z,20.20
2018-06-05T19:16:54.798Z,20.20
2018-06-05T19:19:22.955Z,20.10
2018-06-05T19:21:51.115Z,20.10
2018-06-05T19:24:19.315Z,20.00
2018-06-05T19:26:47.474Z,20.10
2018-06-05T19:29:15.713Z,20.00
2018-06-05T19:31:43.782Z,20.00
2018-06-05T19:34:11.942Z,20.00
2018-06-05T19:39:08.538Z,19.90
2018-06-05T19:41:36.713Z,19.90
2018-06-05T19:44:04.995Z,19.80
2018-06-05T19:46:33.153Z,19.70
2018-06-05T19:49:01.270Z,19.70
2018-06-05T19:51:29.438Z,19.60
2018-06-05T19:53:57.581Z,19.60
2018-06-05T19:56:25.754Z,19.40
2018-06-05T19:58:53.959Z,19.40
2018-06-05T20:01:22.098Z,19.40
2018-06-05T20:03:50.250Z,19.40
2018-06-05T20:06:18.397Z,19.40
2018-06-05T20:08:46.569Z,19.40
2018-06-05T20:11:14.742Z,19.20
2018-06-05T20:13:42.906Z,19.10
2018-06-05T20:16:11.063Z,18.90
2018-06-05T20:18:39.346Z,18.80
2018-06-05T20:21:07.491Z,18.60
2018-06-05T20:23:35.690Z,18.60
2018-06-05T20:26:03.914Z,18.70
2018-06-05T20:28:32.066Z,18.70
2018-06-05T20:31:00.225Z,18.60
2018-06-05T20:33:28.551Z,18.70
2018-06-05T20:35:56.706Z,18.70
2018-06-05T20:38:24.882Z,18.60
2018-06-05T20:40:53.054Z,18.60
2018-06-05T20:43:21.209Z,18.60
2018-06-05T20:45:49.354Z,18.50
2018-06-05T20:48:17.537Z,18.50
2018-06-05T20:50:45.677Z,18.40
2018-06-05T20:53:13.833Z,18.40
2018-06-05T20:58:09.938Z,18.20
2018-06-05T21:00:38.087Z,17.90
2018-06-05T21:03:11.843Z,18.00
2018-06-05T21:05:40.138Z,18.00
2018-06-05T21:08:08.331Z,18.00
2018-06-05T21:10:36.574Z,18.00
2018-06-05T21:13:04.714Z,18.10
2018-06-05T21:15:32.869Z,18.00
2018-06-05T21:18:01.093Z,18.00
2018-06-05T21:20:29.257Z,17.90
2018-06-05T21:22:57.470Z,17.80
2018-06-05T21:25:25.626Z,17.70
2018-06-05T21:27:53.770Z,17.70
2018-06-05T21:30:21.995Z,17.70
2018-06-05T21:32:50.109Z,17.70
2018-06-05T21:35:18.257Z,17.60
2018-06-05T21:37:46.405Z,17.60
2018-06-05T21:40:14.617Z,17.60
2018-06-05T21:42:42.801Z,17.50
2018-06-05T21:45:10.961Z,17.50
2018-06-05T21:47:39.109Z,17.40
2018-06-05T21:50:07.321Z,17.40
2018-06-05T21:52:35.561Z,17.40
2018-06-05T21:55:03.974Z,17.30
2018-06-05T21:57:32.127Z,17.30
2018-06-05T22:00:00.274Z,17.20
2018-06-05T22:02:28.501Z,17.20
2018-06-05T22:04:56.693Z,17.20
2018-06-05T22:07:24.854Z,17.20
2018-06-05T22:09:53.000Z,17.10
2018-06-05T22:12:21.150Z,17.00
2018-06-05T22:14:49.377Z,17.00
2018-06-05T22:17:17.546Z,16.90
2018-06-05T22:19:45.690Z,16.90
2018-06-05T22:22:13.854Z,16.90
2018-06-05T22:24:42.046Z,16.90
2018-06-05T22:29:38.158Z,16.90
2018-06-05T22:32:06.325Z,16.80
2018-06-05T22:34:34.465Z,16.70
2018-06-05T22:37:02.628Z,16.70
2018-06-05T22:39:30.862Z,16.70
2018-06-05T22:41:59.056Z,16.60
2018-06-05T22:44:27.198Z,16.60
2018-06-05T22:46:55.353Z,16.60
2018-06-05T22:49:23.558Z,16.60
2018-06-05T22:51:51.717Z,16.60
2018-06-05T22:54:19.904Z,16.60
2018-06-05T22:56:48.133Z,16.60
2018-06-05T22:59:16.329Z,16.50
2018-06-05T23:01:44.498Z,16.50
2018-06-05T23:04:12.642Z,16.50
2018-06-05T23:06:40.782Z,16.40
2018-06-05T23:09:09.175Z,16.40
2018-06-05T23:11:37.462Z,16.50
2018-06-05T23:14:05.926Z,16.40
2018-06-05T23:16:34.110Z,16.50
2018-06-05T23:19:02.262Z,16.60
2018-06-05T23:21:30.405Z,16.50
2018-06-05T23:23:58.569Z,16.50
2018-06-05T23:26:26.709Z,16.50
2018-06-05T23:28:54.910Z,16.40
2018-06-05T23:31:23.087Z,16.40
2018-06-05T23:33:51.233Z,16.30
2018-06-05T23:38:47.318Z,16.30
2018-06-05T23:41:15.477Z,16.30
2018-06-05T23:43:43.649Z,16.30
2018-06-05T23:46:11.802Z,16.20
2018-06-05T23:48:39.957Z,16.20
2018-06-05T23:51:08.127Z,16.30
2018-06-05T23:53:36.361Z,16.30
2018-06-05T23:56:04.524Z,16.30
2018-06-05T23:58:32.819Z,16.30
